sensor_id;sensor_type;location;lat;lon;timestamp;P1;durP1;ratioP1;P2;durP2;ratioP2
24857;SDS011;12935;50.782;6.074;2023-05-15T00:00:28;22.90;;;10.30;;
24857;SDS011;12935;50.782;6.074;2023-05-15T00:02:54;21.93;;;10.93;;
24857;SDS011;12935;50.782;6.074;2023-05-15T00:05:21;36.00;;;13.67;;
24857;SDS011;12935;50.782;6.074;2023-05-15T00:07:46;43.83;;;17.50;;
24857;SDS011;12935;50.782;6.074;2023-05-15T00:10:11;44.43;;;12.83;;
24857;SDS011;12935;50.782;6.074;2023-05-15T00:12:37;22.30;;;10.60;;
24857;SDS011;12935;50.782;6.074;2023-05-15T00:15:02;24.90;;;11.53;;
24857;SDS011;12935;50.782;6.074;2023-05-15T00:17:27;23.37;;;10.70;;
24857;SDS011;12935;50.782;6.074;2023-05-15T00:19:53;24.13;;;11.70;;
24857;SDS011;12935;50.782;6.074;2023-05-15T00:22:23;34.20;;;13.57;;
24857;SDS011;12935;50.782;6.074;2023-05-15T00:24:48;37.93;;;12.70;;
24857;SDS011;12935;50.782;6.074;2023-05-15T00:27:13;41.23;;;14.03;;
24857;SDS011;12935;50.782;6.074;2023-05-15T00:29:39;39.77;;;12.50;;
24857;SDS011;12935;50.782;6.074;2023-05-15T00:32:04;22.47;;;12.60;;
24857;SDS011;12935;50.782;6.074;2023-05-15T00:34:30;39.30;;;11.93;;
24857;SDS011;12935;50.782;6.074;2023-05-15T00:36:55;33.00;;;11.17;;
24857;SDS011;12935;50.782;6.074;2023-05-15T00:39:20;39.47;;;12.43;;
24857;SDS011;12935;50.782;6.074;2023-05-15T00:41:46;32.63;;;12.50;;
24857;SDS011;12935;50.782;6.074;2023-05-15T00:44:14;40.27;;;13.37;;
24857;SDS011;12935;50.782;6.074;2023-05-15T00:46:40;26.13;;;11.10;;
24857;SDS011;12935;50.782;6.074;2023-05-15T00:49:09;37.20;;;12.80;;
24857;SDS011;12935;50.782;6.074;2023-05-15T00:51:37;25.60;;;12.70;;
24857;SDS011;12935;50.782;6.074;2023-05-15T00:54:04;35.13;;;14.07;;
24857;SDS011;12935;50.782;6.074;2023-05-15T00:56:31;35.53;;;15.30;;
24857;SDS011;12935;50.782;6.074;2023-05-15T00:58:58;50.20;;;14.20;;
24857;SDS011;12935;50.782;6.074;2023-05-15T01:01:26;35.27;;;15.90;;
24857;SDS011;12935;50.782;6.074;2023-05-15T01:03:52;39.77;;;15.07;;
24857;SDS011;12935;50.782;6.074;2023-05-15T01:06:18;42.73;;;15.60;;
24857;SDS011;12935;50.782;6.074;2023-05-15T01:08:46;34.57;;;12.73;;
24857;SDS011;12935;50.782;6.074;2023-05-15T01:11:14;34.03;;;10.97;;
24857;SDS011;12935;50.782;6.074;2023-05-15T01:13:40;22.37;;;10.93;;
24857;SDS011;12935;50.782;6.074;2023-05-15T01:16:06;33.53;;;11.90;;
24857;SDS011;12935;50.782;6.074;2023-05-15T01:18:32;38.43;;;14.27;;
24857;SDS011;12935;50.782;6.074;2023-05-15T01:28:54;43.40;;;15.57;;
24857;SDS011;12935;50.782;6.074;2023-05-15T01:31:25;44.83;;;16.37;;
24857;SDS011;12935;50.782;6.074;2023-05-15T01:33:58;48.23;;;15.40;;
24857;SDS011;12935;50.782;6.074;2023-05-15T01:36:35;32.27;;;13.20;;
24857;SDS011;12935;50.782;6.074;2023-05-15T01:39:03;42.77;;;17.03;;
24857;SDS011;12935;50.782;6.074;2023-05-15T01:41:53;41.77;;;13.60;;
24857;SDS011;12935;50.782;6.074;2023-05-15T01:44:56;27.07;;;13.80;;
24857;SDS011;12935;50.782;6.074;2023-05-15T01:47:19;33.93;;;11.10;;
24857;SDS011;12935;50.782;6.074;2023-05-15T01:49:50;36.13;;;13.57;;
24857;SDS011;12935;50.782;6.074;2023-05-15T01:52:22;38.90;;;13.40;;
24857;SDS011;12935;50.782;6.074;2023-05-15T01:54:53;40.40;;;13.17;;
24857;SDS011;12935;50.782;6.074;2023-05-15T01:57:19;35.53;;;12.97;;
24857;SDS011;12935;50.782;6.074;2023-05-15T01:59:46;37.47;;;15.90;;
24857;SDS011;12935;50.782;6.074;2023-05-15T02:02:11;32.83;;;10.00;;
24857;SDS011;12935;50.782;6.074;2023-05-15T02:04:38;49.73;;;17.03;;
24857;SDS011;12935;50.782;6.074;2023-05-15T02:07:05;39.27;;;14.53;;
24857;SDS011;12935;50.782;6.074;2023-05-15T02:09:31;64.63;;;16.33;;
24857;SDS011;12935;50.782;6.074;2023-05-15T02:11:57;32.63;;;10.97;;
24857;SDS011;12935;50.782;6.074;2023-05-15T02:14:25;35.47;;;14.57;;
24857;SDS011;12935;50.782;6.074;2023-05-15T02:16:52;73.87;;;17.13;;
24857;SDS011;12935;50.782;6.074;2023-05-15T02:19:18;40.13;;;13.23;;
24857;SDS011;12935;50.782;6.074;2023-05-15T02:21:43;28.87;;;14.10;;
24857;SDS011;12935;50.782;6.074;2023-05-15T02:24:08;34.80;;;14.23;;
24857;SDS011;12935;50.782;6.074;2023-05-15T02:26:35;44.50;;;14.23;;
24857;SDS011;12935;50.782;6.074;2023-05-15T02:29:05;65.83;;;18.30;;
24857;SDS011;12935;50.782;6.074;2023-05-15T02:34:36;45.73;;;12.63;;
24857;SDS011;12935;50.782;6.074;2023-05-15T02:37:10;42.37;;;14.57;;
24857;SDS011;12935;50.782;6.074;2023-05-15T02:39:42;37.10;;;14.13;;
24857;SDS011;12935;50.782;6.074;2023-05-15T02:42:10;45.90;;;14.60;;
24857;SDS011;12935;50.782;6.074;2023-05-15T02:44:36;46.67;;;14.77;;
24857;SDS011;12935;50.782;6.074;2023-05-15T02:47:03;45.57;;;13.53;;
24857;SDS011;12935;50.782;6.074;2023-05-15T02:49:30;43.07;;;16.53;;
24857;SDS011;12935;50.782;6.074;2023-05-15T02:51:55;32.50;;;12.90;;
24857;SDS011;12935;50.782;6.074;2023-05-15T02:54:20;34.97;;;13.50;;
24857;SDS011;12935;50.782;6.074;2023-05-15T02:56:45;34.37;;;11.40;;
24857;SDS011;12935;50.782;6.074;2023-05-15T02:59:11;33.90;;;11.20;;
24857;SDS011;12935;50.782;6.074;2023-05-15T03:01:42;32.20;;;15.50;;
24857;SDS011;12935;50.782;6.074;2023-05-15T03:04:07;44.33;;;14.67;;
24857;SDS011;12935;50.782;6.074;2023-05-15T03:06:33;34.07;;;13.10;;
24857;SDS011;12935;50.782;6.074;2023-05-15T03:08:58;37.53;;;11.73;;
24857;SDS011;12935;50.782;6.074;2023-05-15T03:11:23;32.13;;;10.93;;
24857;SDS011;12935;50.782;6.074;2023-05-15T03:13:49;31.40;;;12.20;;
24857;SDS011;12935;50.782;6.074;2023-05-15T03:16:14;29.13;;;10.20;;
24857;SDS011;12935;50.782;6.074;2023-05-15T03:18:39;27.47;;;12.00;;
24857;SDS011;12935;50.782;6.074;2023-05-15T03:21:06;45.63;;;14.30;;
24857;SDS011;12935;50.782;6.074;2023-05-15T03:23:31;42.57;;;13.07;;
24857;SDS011;12935;50.782;6.074;2023-05-15T03:25:56;28.63;;;12.80;;
24857;SDS011;12935;50.782;6.074;2023-05-15T03:28:21;34.97;;;12.53;;
24857;SDS011;12935;50.782;6.074;2023-05-15T03:30:47;26.73;;;10.73;;
24857;SDS011;12935;50.782;6.074;2023-05-15T03:33:12;28.60;;;12.60;;
24857;SDS011;12935;50.782;6.074;2023-05-15T03:35:37;37.93;;;13.20;;
24857;SDS011;12935;50.782;6.074;2023-05-15T03:38:03;25.90;;;10.60;;
24857;SDS011;12935;50.782;6.074;2023-05-15T03:40:28;25.30;;;10.23;;
24857;SDS011;12935;50.782;6.074;2023-05-15T03:42:53;31.77;;;11.80;;
24857;SDS011;12935;50.782;6.074;2023-05-15T03:45:19;50.50;;;15.90;;
24857;SDS011;12935;50.782;6.074;2023-05-15T03:47:44;49.83;;;14.67;;
24857;SDS011;12935;50.782;6.074;2023-05-15T03:50:10;29.60;;;10.30;;
24857;SDS011;12935;50.782;6.074;2023-05-15T03:52:35;42.00;;;14.20;;
24857;SDS011;12935;50.782;6.074;2023-05-15T03:55:01;31.53;;;13.60;;
24857;SDS011;12935;50.782;6.074;2023-05-15T03:57:26;32.97;;;10.83;;
24857;SDS011;12935;50.782;6.074;2023-05-15T03:59:52;49.43;;;13.80;;
24857;SDS011;12935;50.782;6.074;2023-05-15T04:02:17;31.33;;;11.57;;
24857;SDS011;12935;50.782;6.074;2023-05-15T04:04:42;28.50;;;12.37;;
24857;SDS011;12935;50.782;6.074;2023-05-15T04:07:08;50.77;;;20.77;;
24857;SDS011;12935;50.782;6.074;2023-05-15T04:09:34;66.27;;;15.10;;
24857;SDS011;12935;50.782;6.074;2023-05-15T04:11:59;29.37;;;9.57;;
24857;SDS011;12935;50.782;6.074;2023-05-15T04:14:24;36.50;;;14.10;;
24857;SDS011;12935;50.782;6.074;2023-05-15T04:16:50;32.20;;;10.50;;
24857;SDS011;12935;50.782;6.074;2023-05-15T04:19:15;40.43;;;16.03;;
24857;SDS011;12935;50.782;6.074;2023-05-15T04:21:40;31.13;;;14.03;;
24857;SDS011;12935;50.782;6.074;2023-05-15T04:24:06;31.97;;;14.73;;
24857;SDS011;12935;50.782;6.074;2023-05-15T04:26:31;42.67;;;13.03;;
24857;SDS011;12935;50.782;6.074;2023-05-15T04:28:57;48.80;;;14.93;;
24857;SDS011;12935;50.782;6.074;2023-05-15T04:31:23;36.33;;;14.33;;
24857;SDS011;12935;50.782;6.074;2023-05-15T04:33:49;45.13;;;15.50;;
24857;SDS011;12935;50.782;6.074;2023-05-15T04:36:15;38.40;;;15.13;;
24857;SDS011;12935;50.782;6.074;2023-05-15T04:38:40;32.13;;;13.13;;
24857;SDS011;12935;50.782;6.074;2023-05-15T04:41:06;52.20;;;18.07;;
24857;SDS011;12935;50.782;6.074;2023-05-15T04:43:31;38.17;;;13.60;;
24857;SDS011;12935;50.782;6.074;2023-05-15T04:45:56;42.67;;;15.10;;
24857;SDS011;12935;50.782;6.074;2023-05-15T04:48:22;33.10;;;14.83;;
24857;SDS011;12935;50.782;6.074;2023-05-15T04:50:47;49.13;;;15.33;;
24857;SDS011;12935;50.782;6.074;2023-05-15T04:53:12;31.27;;;10.47;;
24857;SDS011;12935;50.782;6.074;2023-05-15T04:55:38;41.20;;;14.07;;
24857;SDS011;12935;50.782;6.074;2023-05-15T04:58:03;33.97;;;13.93;;
24857;SDS011;12935;50.782;6.074;2023-05-15T05:00:29;48.70;;;17.27;;
24857;SDS011;12935;50.782;6.074;2023-05-15T05:02:55;39.77;;;14.17;;
24857;SDS011;12935;50.782;6.074;2023-05-15T05:05:20;33.77;;;10.67;;
24857;SDS011;12935;50.782;6.074;2023-05-15T05:07:45;38.37;;;11.90;;
24857;SDS011;12935;50.782;6.074;2023-05-15T05:10:11;37.07;;;13.00;;
24857;SDS011;12935;50.782;6.074;2023-05-15T05:12:36;72.70;;;20.90;;
24857;SDS011;12935;50.782;6.074;2023-05-15T05:15:01;55.40;;;16.33;;
24857;SDS011;12935;50.782;6.074;2023-05-15T05:17:28;32.43;;;12.03;;
24857;SDS011;12935;50.782;6.074;2023-05-15T05:19:53;48.37;;;12.80;;
24857;SDS011;12935;50.782;6.074;2023-05-15T05:22:18;36.83;;;16.07;;
24857;SDS011;12935;50.782;6.074;2023-05-15T05:24:44;55.70;;;21.10;;
24857;SDS011;12935;50.782;6.074;2023-05-15T05:27:09;50.30;;;19.27;;
24857;SDS011;12935;50.782;6.074;2023-05-15T05:29:34;65.60;;;19.90;;
24857;SDS011;12935;50.782;6.074;2023-05-15T05:32:00;45.23;;;15.77;;
24857;SDS011;12935;50.782;6.074;2023-05-15T05:34:25;43.03;;;12.80;;
24857;SDS011;12935;50.782;6.074;2023-05-15T05:36:50;51.80;;;15.60;;
24857;SDS011;12935;50.782;6.074;2023-05-15T05:39:16;51.37;;;16.20;;
24857;SDS011;12935;50.782;6.074;2023-05-15T05:41:41;37.70;;;13.83;;
24857;SDS011;12935;50.782;6.074;2023-05-15T05:44:07;32.30;;;9.40;;
24857;SDS011;12935;50.782;6.074;2023-05-15T05:46:32;28.90;;;10.63;;
24857;SDS011;12935;50.782;6.074;2023-05-15T05:48:58;46.83;;;14.40;;
24857;SDS011;12935;50.782;6.074;2023-05-15T05:51:23;38.73;;;13.07;;
24857;SDS011;12935;50.782;6.074;2023-05-15T05:53:48;35.00;;;13.77;;
24857;SDS011;12935;50.782;6.074;2023-05-15T05:56:14;50.33;;;14.30;;
24857;SDS011;12935;50.782;6.074;2023-05-15T05:58:39;30.37;;;9.77;;
24857;SDS011;12935;50.782;6.074;2023-05-15T06:01:05;68.13;;;14.73;;
24857;SDS011;12935;50.782;6.074;2023-05-15T06:03:30;38.77;;;15.37;;
24857;SDS011;12935;50.782;6.074;2023-05-15T06:05:56;38.23;;;14.03;;
24857;SDS011;12935;50.782;6.074;2023-05-15T06:08:21;40.67;;;13.17;;
24857;SDS011;12935;50.782;6.074;2023-05-15T06:10:47;42.97;;;10.80;;
24857;SDS011;12935;50.782;6.074;2023-05-15T06:13:12;43.63;;;13.87;;
24857;SDS011;12935;50.782;6.074;2023-05-15T06:15:39;41.13;;;15.43;;
24857;SDS011;12935;50.782;6.074;2023-05-15T06:18:04;32.03;;;11.83;;
24857;SDS011;12935;50.782;6.074;2023-05-15T06:20:30;26.83;;;13.53;;
24857;SDS011;12935;50.782;6.074;2023-05-15T06:22:55;37.23;;;11.27;;
24857;SDS011;12935;50.782;6.074;2023-05-15T06:25:21;47.93;;;15.77;;
24857;SDS011;12935;50.782;6.074;2023-05-15T06:27:46;25.30;;;8.50;;
24857;SDS011;12935;50.782;6.074;2023-05-15T06:30:12;29.20;;;12.43;;
24857;SDS011;12935;50.782;6.074;2023-05-15T06:32:38;36.03;;;12.07;;
24857;SDS011;12935;50.782;6.074;2023-05-15T06:35:04;66.83;;;17.30;;
24857;SDS011;12935;50.782;6.074;2023-05-15T06:37:30;58.93;;;14.83;;
24857;SDS011;12935;50.782;6.074;2023-05-15T06:39:55;42.37;;;12.57;;
24857;SDS011;12935;50.782;6.074;2023-05-15T06:42:21;44.50;;;11.90;;
24857;SDS011;12935;50.782;6.074;2023-05-15T06:44:46;25.00;;;9.10;;
24857;SDS011;12935;50.782;6.074;2023-05-15T06:47:13;34.00;;;12.40;;
24857;SDS011;12935;50.782;6.074;2023-05-15T06:49:38;35.77;;;11.87;;
24857;SDS011;12935;50.782;6.074;2023-05-15T06:52:04;37.00;;;12.17;;
24857;SDS011;12935;50.782;6.074;2023-05-15T06:54:29;33.03;;;10.50;;
24857;SDS011;12935;50.782;6.074;2023-05-15T06:56:55;36.20;;;12.07;;
24857;SDS011;12935;50.782;6.074;2023-05-15T06:59:20;60.83;;;13.37;;
24857;SDS011;12935;50.782;6.074;2023-05-15T07:01:45;35.20;;;11.80;;
24857;SDS011;12935;50.782;6.074;2023-05-15T07:04:11;45.80;;;12.93;;
24857;SDS011;12935;50.782;6.074;2023-05-15T07:06:36;34.87;;;10.13;;
24857;SDS011;12935;50.782;6.074;2023-05-15T07:09:01;32.17;;;11.53;;
24857;SDS011;12935;50.782;6.074;2023-05-15T07:11:27;29.27;;;9.63;;
24857;SDS011;12935;50.782;6.074;2023-05-15T07:13:53;37.67;;;12.80;;
24857;SDS011;12935;50.782;6.074;2023-05-15T07:16:18;33.80;;;10.73;;
24857;SDS011;12935;50.782;6.074;2023-05-15T07:18:43;41.77;;;12.57;;
24857;SDS011;12935;50.782;6.074;2023-05-15T07:21:09;42.60;;;12.73;;
24857;SDS011;12935;50.782;6.074;2023-05-15T07:23:34;31.63;;;10.20;;
24857;SDS011;12935;50.782;6.074;2023-05-15T07:25:59;33.27;;;10.90;;
24857;SDS011;12935;50.782;6.074;2023-05-15T07:28:24;27.07;;;10.53;;
24857;SDS011;12935;50.782;6.074;2023-05-15T07:30:50;33.47;;;12.47;;
24857;SDS011;12935;50.782;6.074;2023-05-15T07:33:16;35.23;;;11.80;;
24857;SDS011;12935;50.782;6.074;2023-05-15T07:35:41;41.17;;;12.97;;
24857;SDS011;12935;50.782;6.074;2023-05-15T07:38:07;35.27;;;12.23;;
24857;SDS011;12935;50.782;6.074;2023-05-15T07:40:32;34.27;;;11.40;;
24857;SDS011;12935;50.782;6.074;2023-05-15T07:42:57;29.33;;;10.63;;
24857;SDS011;12935;50.782;6.074;2023-05-15T07:45:23;31.73;;;10.73;;
24857;SDS011;12935;50.782;6.074;2023-05-15T07:47:48;40.37;;;12.67;;
24857;SDS011;12935;50.782;6.074;2023-05-15T07:50:15;40.17;;;18.33;;
24857;SDS011;12935;50.782;6.074;2023-05-15T07:52:41;34.43;;;14.40;;
24857;SDS011;12935;50.782;6.074;2023-05-15T07:55:08;34.97;;;10.67;;
24857;SDS011;12935;50.782;6.074;2023-05-15T07:57:33;33.13;;;9.80;;
24857;SDS011;12935;50.782;6.074;2023-05-15T07:59:59;46.80;;;13.17;;
24857;SDS011;12935;50.782;6.074;2023-05-15T08:02:24;28.47;;;10.63;;
24857;SDS011;12935;50.782;6.074;2023-05-15T08:04:50;36.23;;;11.20;;
24857;SDS011;12935;50.782;6.074;2023-05-15T08:07:16;27.73;;;13.30;;
24857;SDS011;12935;50.782;6.074;2023-05-15T08:09:41;42.73;;;10.53;;
24857;SDS011;12935;50.782;6.074;2023-05-15T08:12:22;65.97;;;13.73;;
24857;SDS011;12935;50.782;6.074;2023-05-15T08:14:48;33.23;;;11.10;;
24857;SDS011;12935;50.782;6.074;2023-05-15T08:17:13;38.97;;;11.37;;
24857;SDS011;12935;50.782;6.074;2023-05-15T08:19:38;49.90;;;13.83;;
24857;SDS011;12935;50.782;6.074;2023-05-15T08:22:03;23.57;;;10.33;;
24857;SDS011;12935;50.782;6.074;2023-05-15T08:24:29;27.73;;;12.10;;
24857;SDS011;12935;50.782;6.074;2023-05-15T08:26:54;34.50;;;11.87;;
24857;SDS011;12935;50.782;6.074;2023-05-15T08:29:19;28.90;;;9.33;;
24857;SDS011;12935;50.782;6.074;2023-05-15T08:31:45;32.93;;;11.37;;
24857;SDS011;12935;50.782;6.074;2023-05-15T08:34:10;34.30;;;13.50;;
24857;SDS011;12935;50.782;6.074;2023-05-15T08:36:35;46.43;;;12.00;;
24857;SDS011;12935;50.782;6.074;2023-05-15T08:39:01;34.87;;;15.53;;
24857;SDS011;12935;50.782;6.074;2023-05-15T08:41:34;27.03;;;13.40;;
24857;SDS011;12935;50.782;6.074;2023-05-15T08:44:04;23.23;;;10.30;;
24857;SDS011;12935;50.782;6.074;2023-05-15T08:46:30;32.97;;;11.70;;
24857;SDS011;12935;50.782;6.074;2023-05-15T08:48:56;29.43;;;9.93;;
24857;SDS011;12935;50.782;6.074;2023-05-15T08:51:23;33.83;;;11.63;;
24857;SDS011;12935;50.782;6.074;2023-05-15T08:53:49;45.77;;;15.37;;
24857;SDS011;12935;50.782;6.074;2023-05-15T08:56:15;24.17;;;12.43;;
24857;SDS011;12935;50.782;6.074;2023-05-15T08:58:41;41.83;;;12.00;;
24857;SDS011;12935;50.782;6.074;2023-05-15T09:01:07;25.50;;;10.10;;
24857;SDS011;12935;50.782;6.074;2023-05-15T09:03:33;28.00;;;12.03;;
24857;SDS011;12935;50.782;6.074;2023-05-15T09:05:58;24.70;;;10.83;;
24857;SDS011;12935;50.782;6.074;2023-05-15T09:08:24;25.23;;;10.50;;
24857;SDS011;12935;50.782;6.074;2023-05-15T09:10:54;46.47;;;13.67;;
24857;SDS011;12935;50.782;6.074;2023-05-15T09:13:20;41.80;;;11.37;;
24857;SDS011;12935;50.782;6.074;2023-05-15T09:15:45;41.50;;;13.93;;
24857;SDS011;12935;50.782;6.074;2023-05-15T09:18:12;29.10;;;10.93;;
24857;SDS011;12935;50.782;6.074;2023-05-15T09:20:39;28.93;;;12.70;;
24857;SDS011;12935;50.782;6.074;2023-05-15T09:23:04;23.00;;;12.83;;
24857;SDS011;12935;50.782;6.074;2023-05-15T09:25:46;33.37;;;14.40;;
24857;SDS011;12935;50.782;6.074;2023-05-15T09:28:23;32.63;;;11.80;;
24857;SDS011;12935;50.782;6.074;2023-05-15T09:30:55;34.00;;;14.67;;
24857;SDS011;12935;50.782;6.074;2023-05-15T09:33:29;51.63;;;15.87;;
24857;SDS011;12935;50.782;6.074;2023-05-15T09:36:05;40.53;;;12.70;;
24857;SDS011;12935;50.782;6.074;2023-05-15T09:38:32;28.77;;;13.57;;
24857;SDS011;12935;50.782;6.074;2023-05-15T09:41:03;47.80;;;15.17;;
24857;SDS011;12935;50.782;6.074;2023-05-15T09:43:37;26.97;;;10.80;;
24857;SDS011;12935;50.782;6.074;2023-05-15T09:46:04;40.70;;;15.17;;
24857;SDS011;12935;50.782;6.074;2023-05-15T09:48:30;33.70;;;15.30;;
24857;SDS011;12935;50.782;6.074;2023-05-15T09:50:56;56.73;;;19.83;;
24857;SDS011;12935;50.782;6.074;2023-05-15T09:53:22;25.23;;;13.03;;
24857;SDS011;12935;50.782;6.074;2023-05-15T09:55:48;24.53;;;13.10;;
24857;SDS011;12935;50.782;6.074;2023-05-15T09:58:14;34.30;;;15.40;;
24857;SDS011;12935;50.782;6.074;2023-05-15T10:00:41;32.50;;;16.03;;
24857;SDS011;12935;50.782;6.074;2023-05-15T10:03:08;34.50;;;15.50;;
24857;SDS011;12935;50.782;6.074;2023-05-15T10:05:34;33.23;;;17.20;;
24857;SDS011;12935;50.782;6.074;2023-05-15T10:08:00;36.20;;;13.90;;
24857;SDS011;12935;50.782;6.074;2023-05-15T10:10:26;34.00;;;15.00;;
24857;SDS011;12935;50.782;6.074;2023-05-15T10:12:53;32.50;;;17.53;;
24857;SDS011;12935;50.782;6.074;2023-05-15T10:15:25;36.43;;;15.53;;
24857;SDS011;12935;50.782;6.074;2023-05-15T10:17:51;28.03;;;14.27;;
24857;SDS011;12935;50.782;6.074;2023-05-15T10:20:18;43.73;;;19.20;;
24857;SDS011;12935;50.782;6.074;2023-05-15T10:22:48;44.37;;;18.67;;
24857;SDS011;12935;50.782;6.074;2023-05-15T10:27:45;29.50;;;16.80;;
24857;SDS011;12935;50.782;6.074;2023-05-15T10:30:11;50.10;;;20.00;;
24857;SDS011;12935;50.782;6.074;2023-05-15T10:32:40;42.30;;;18.40;;
24857;SDS011;12935;50.782;6.074;2023-05-15T10:35:08;46.77;;;17.37;;
24857;SDS011;12935;50.782;6.074;2023-05-15T10:37:34;38.97;;;16.73;;
24857;SDS011;12935;50.782;6.074;2023-05-15T10:40:00;28.93;;;17.30;;
24857;SDS011;12935;50.782;6.074;2023-05-15T10:42:26;34.43;;;17.10;;
24857;SDS011;12935;50.782;6.074;2023-05-15T10:44:53;43.13;;;16.37;;
24857;SDS011;12935;50.782;6.074;2023-05-15T10:47:23;41.60;;;18.77;;
24857;SDS011;12935;50.782;6.074;2023-05-15T10:49:50;34.23;;;17.77;;
24857;SDS011;12935;50.782;6.074;2023-05-15T10:52:15;48.63;;;16.00;;
24857;SDS011;12935;50.782;6.074;2023-05-15T10:54:40;51.17;;;18.77;;
24857;SDS011;12935;50.782;6.074;2023-05-15T10:57:06;35.10;;;18.60;;
24857;SDS011;12935;50.782;6.074;2023-05-15T10:59:32;66.93;;;21.30;;
24857;SDS011;12935;50.782;6.074;2023-05-15T11:05:02;35.10;;;16.23;;
24857;SDS011;12935;50.782;6.074;2023-05-15T11:07:28;34.80;;;18.13;;
24857;SDS011;12935;50.782;6.074;2023-05-15T11:09:54;50.60;;;18.10;;
24857;SDS011;12935;50.782;6.074;2023-05-15T11:12:20;62.67;;;21.87;;
24857;SDS011;12935;50.782;6.074;2023-05-15T11:17:23;34.30;;;19.57;;
24857;SDS011;12935;50.782;6.074;2023-05-15T11:22:30;31.87;;;18.57;;
24857;SDS011;12935;50.782;6.074;2023-05-15T11:25:04;58.33;;;19.00;;
24857;SDS011;12935;50.782;6.074;2023-05-15T11:27:31;23.27;;;18.23;;
24857;SDS011;12935;50.782;6.074;2023-05-15T11:30:08;36.87;;;18.80;;
24857;SDS011;12935;50.782;6.074;2023-05-15T11:32:44;28.60;;;17.20;;
24857;SDS011;12935;50.782;6.074;2023-05-15T11:38:02;38.20;;;17.87;;
24857;SDS011;12935;50.782;6.074;2023-05-15T11:40:29;24.83;;;14.67;;
24857;SDS011;12935;50.782;6.074;2023-05-15T11:43:03;48.23;;;17.87;;
24857;SDS011;12935;50.782;6.074;2023-05-15T11:45:31;49.40;;;21.93;;
24857;SDS011;12935;50.782;6.074;2023-05-15T11:47:58;36.33;;;18.37;;
24857;SDS011;12935;50.782;6.074;2023-05-15T11:50:25;39.17;;;18.43;;
24857;SDS011;12935;50.782;6.074;2023-05-15T11:52:51;44.03;;;20.77;;
24857;SDS011;12935;50.782;6.074;2023-05-15T11:55:17;31.43;;;19.77;;
24857;SDS011;12935;50.782;6.074;2023-05-15T11:57:46;44.50;;;19.37;;
24857;SDS011;12935;50.782;6.074;2023-05-15T12:00:12;41.87;;;21.13;;
24857;SDS011;12935;50.782;6.074;2023-05-15T12:02:38;34.00;;;19.77;;
24857;SDS011;12935;50.782;6.074;2023-05-15T12:05:05;37.93;;;22.83;;
24857;SDS011;12935;50.782;6.074;2023-05-15T12:07:34;35.60;;;21.90;;
24857;SDS011;12935;50.782;6.074;2023-05-15T12:10:01;45.87;;;20.93;;
24857;SDS011;12935;50.782;6.074;2023-05-15T12:12:26;32.37;;;19.93;;
24857;SDS011;12935;50.782;6.074;2023-05-15T12:14:52;46.57;;;21.97;;
24857;SDS011;12935;50.782;6.074;2023-05-15T12:17:21;27.70;;;20.47;;
24857;SDS011;12935;50.782;6.074;2023-05-15T12:19:47;42.07;;;19.70;;
24857;SDS011;12935;50.782;6.074;2023-05-15T12:22:14;45.30;;;22.90;;
24857;SDS011;12935;50.782;6.074;2023-05-15T12:24:41;39.53;;;22.20;;
24857;SDS011;12935;50.782;6.074;2023-05-15T12:27:06;49.33;;;20.20;;
24857;SDS011;12935;50.782;6.074;2023-05-15T12:29:33;61.07;;;22.80;;
24857;SDS011;12935;50.782;6.074;2023-05-15T12:31:58;43.67;;;20.47;;
24857;SDS011;12935;50.782;6.074;2023-05-15T12:34:24;51.93;;;23.13;;
24857;SDS011;12935;50.782;6.074;2023-05-15T12:36:50;34.63;;;19.47;;
24857;SDS011;12935;50.782;6.074;2023-05-15T12:39:15;79.60;;;23.47;;
24857;SDS011;12935;50.782;6.074;2023-05-15T12:41:40;35.83;;;21.20;;
24857;SDS011;12935;50.782;6.074;2023-05-15T12:44:05;48.20;;;24.10;;
24857;SDS011;12935;50.782;6.074;2023-05-15T12:46:39;40.87;;;17.90;;
24857;SDS011;12935;50.782;6.074;2023-05-15T12:49:05;43.23;;;20.97;;
24857;SDS011;12935;50.782;6.074;2023-05-15T12:51:30;32.90;;;21.00;;
24857;SDS011;12935;50.782;6.074;2023-05-15T12:53:56;28.27;;;19.27;;
24857;SDS011;12935;50.782;6.074;2023-05-15T12:56:22;40.53;;;22.27;;
24857;SDS011;12935;50.782;6.074;2023-05-15T12:58:47;32.03;;;18.70;;
24857;SDS011;12935;50.782;6.074;2023-05-15T13:01:13;34.73;;;21.37;;
24857;SDS011;12935;50.782;6.074;2023-05-15T13:03:40;37.10;;;21.80;;
24857;SDS011;12935;50.782;6.074;2023-05-15T13:06:06;33.70;;;21.20;;
24857;SDS011;12935;50.782;6.074;2023-05-15T13:08:37;39.77;;;22.17;;
24857;SDS011;12935;50.782;6.074;2023-05-15T13:11:04;41.43;;;19.13;;
24857;SDS011;12935;50.782;6.074;2023-05-15T13:13:43;46.17;;;20.70;;
24857;SDS011;12935;50.782;6.074;2023-05-15T13:16:16;48.10;;;23.37;;
24857;SDS011;12935;50.782;6.074;2023-05-15T13:18:43;45.30;;;21.47;;
24857;SDS011;12935;50.782;6.074;2023-05-15T13:21:08;37.20;;;19.77;;
24857;SDS011;12935;50.782;6.074;2023-05-15T13:23:33;35.60;;;20.73;;
24857;SDS011;12935;50.782;6.074;2023-05-15T13:25:59;34.07;;;20.20;;
24857;SDS011;12935;50.782;6.074;2023-05-15T13:28:24;35.10;;;23.40;;
24857;SDS011;12935;50.782;6.074;2023-05-15T13:30:49;34.07;;;20.43;;
24857;SDS011;12935;50.782;6.074;2023-05-15T13:33:15;26.33;;;19.30;;
24857;SDS011;12935;50.782;6.074;2023-05-15T13:35:40;36.43;;;20.83;;
24857;SDS011;12935;50.782;6.074;2023-05-15T13:38:07;39.93;;;22.67;;
24857;SDS011;12935;50.782;6.074;2023-05-15T13:40:32;23.57;;;18.80;;
24857;SDS011;12935;50.782;6.074;2023-05-15T13:42:59;27.57;;;19.80;;
24857;SDS011;12935;50.782;6.074;2023-05-15T13:45:25;32.90;;;23.03;;
24857;SDS011;12935;50.782;6.074;2023-05-15T13:47:51;26.63;;;18.33;;
24857;SDS011;12935;50.782;6.074;2023-05-15T13:50:16;26.53;;;17.80;;
24857;SDS011;12935;50.782;6.074;2023-05-15T13:52:42;49.80;;;18.47;;
24857;SDS011;12935;50.782;6.074;2023-05-15T13:55:08;40.80;;;18.10;;
24857;SDS011;12935;50.782;6.074;2023-05-15T13:57:37;32.70;;;17.77;;
24857;SDS011;12935;50.782;6.074;2023-05-15T14:00:04;33.00;;;16.40;;
24857;SDS011;12935;50.782;6.074;2023-05-15T14:02:31;32.30;;;18.20;;
24857;SDS011;12935;50.782;6.074;2023-05-15T14:04:57;45.50;;;18.17;;
24857;SDS011;12935;50.782;6.074;2023-05-15T14:07:23;35.87;;;16.63;;
24857;SDS011;12935;50.782;6.074;2023-05-15T14:09:49;30.33;;;16.87;;
24857;SDS011;12935;50.782;6.074;2023-05-15T14:12:15;50.23;;;19.43;;
24857;SDS011;12935;50.782;6.074;2023-05-15T14:14:40;39.93;;;15.40;;
24857;SDS011;12935;50.782;6.074;2023-05-15T14:17:06;36.70;;;16.27;;
24857;SDS011;12935;50.782;6.074;2023-05-15T14:19:31;62.03;;;19.50;;
24857;SDS011;12935;50.782;6.074;2023-05-15T14:21:56;38.03;;;16.43;;
24857;SDS011;12935;50.782;6.074;2023-05-15T14:24:21;39.57;;;16.43;;
24857;SDS011;12935;50.782;6.074;2023-05-15T14:26:47;34.57;;;15.90;;
24857;SDS011;12935;50.782;6.074;2023-05-15T14:29:12;45.67;;;16.90;;
24857;SDS011;12935;50.782;6.074;2023-05-15T14:31:38;30.10;;;11.77;;
24857;SDS011;12935;50.782;6.074;2023-05-15T14:34:03;44.93;;;15.40;;
24857;SDS011;12935;50.782;6.074;2023-05-15T14:36:29;45.10;;;16.77;;
24857;SDS011;12935;50.782;6.074;2023-05-15T14:38:55;40.57;;;17.63;;
24857;SDS011;12935;50.782;6.074;2023-05-15T14:41:20;55.33;;;15.30;;